Time;durP1;ratioP1;P1;durP2;ratioP2;P2;SDS_P1;SDS_P2;PMS_P1;PMS_P2;Temp;Humidity;BMP_temperature;BMP_pressure;BME280_temperature;BME280_humidity;BME280_pressure;Samples;Min_cycle;Max_cycle;Signal;HPM_P1;HPM_P2
2022/08/30 00:01:08;;;;;;;2.28;0.52;;;;;;;15.37;63.26;101063.88;4981319;28;20163;-43
2022/08/30 00:03:44;;;;;;;3.22;0.90;;;;;;;15.37;62.99;101056.03;4978140;28;20066;-43
2022/08/30 00:06:13;;;;;;;2.60;0.77;;;;;;;15.39;63.03;101059.53;4980184;28;20058;-42
2022/08/30 00:08:42;;;;;;;3.85;1.17;;;;;;;15.39;63.15;101058.66;4980134;28;20108;-38
2022/08/30 00:11:11;;;;;;;6.30;1.10;;;;;;;15.39;63.79;101051.69;4979349;28;20113;-45
2022/08/30 00:13:40;;;;;;;4.50;0.90;;;;;;;15.39;63.55;101048.19;4981589;28;20101;-38
2022/08/30 00:16:08;;;;;;;4.28;0.80;;;;;;;15.38;63.23;101047.34;4987759;28;20109;-39
2022/08/30 00:18:36;;;;;;;5.28;0.90;;;;;;;15.39;63.73;101049.09;4989628;28;20080;-41
2022/08/30 00:21:06;;;;;;;2.70;0.98;;;;;;;15.39;63.65;101038.63;4988473;28;20081;-45
2022/08/30 00:23:35;;;;;;;2.00;1.13;;;;;;;15.37;63.60;101045.59;4983969;28;20050;-39
2022/08/30 00:26:05;;;;;;;2.28;0.90;;;;;;;15.36;63.79;101054.31;4980738;28;20047;-40
2022/08/30 00:28:34;;;;;;;2.45;1.20;;;;;;;15.36;63.19;101049.09;4984775;28;20054;-39
2022/08/30 00:31:03;;;;;;;5.00;1.40;;;;;;;15.37;63.49;101052.59;4983419;28;20046;-42
2022/08/30 00:33:31;;;;;;;4.25;0.90;;;;;;;15.37;63.38;101058.66;4985378;28;20074;-42
2022/08/30 00:36:00;;;;;;;4.90;1.20;;;;;;;15.39;63.33;101062.13;4985425;28;20054;-46
2022/08/30 00:38:28;;;;;;;2.85;1.13;;;;;;;15.41;63.35;101055.13;4984239;28;20042;-42
2022/08/30 00:40:56;;;;;;;2.08;0.55;;;;;;;15.41;63.02;101062.97;4986953;28;20446;-42
2022/08/30 00:43:26;;;;;;;5.25;0.88;;;;;;;15.44;63.91;101067.34;4987847;28;20050;-45
2022/08/30 00:45:53;;;;;;;2.88;0.70;;;;;;;15.44;63.48;101062.13;4984831;28;20074;-44
2022/08/30 00:48:21;;;;;;;6.70;1.00;;;;;;;15.44;63.39;101056.00;4985729;28;20047;-43
2022/08/30 00:50:52;;;;;;;4.00;0.82;;;;;;;15.45;63.45;101060.34;4984174;28;20046;-40
2022/08/30 00:53:24;;;;;;;2.80;0.90;;;;;;;15.45;63.59;101058.63;4984434;28;20603;-42
2022/08/30 00:55:52;;;;;;;4.40;1.33;;;;;;;15.45;63.54;101068.19;4983656;28;20057;-44
2022/08/30 00:58:26;;;;;;;1.90;0.98;;;;;;;15.45;63.55;101068.19;4987258;28;20046;-39
2022/08/30 01:00:55;;;;;;;2.03;0.70;;;;;;;15.45;63.77;101062.97;4982309;28;20552;-46
2022/08/30 01:03:22;;;;;;;3.65;0.63;;;;;;;15.44;63.68;101061.22;4985712;28;20050;-38
2022/08/30 01:05:50;;;;;;;7.90;1.33;;;;;;;15.42;63.90;101054.28;4986761;28;20495;-40
2022/08/30 01:08:20;;;;;;;2.20;0.70;;;;;;;15.44;63.37;101050.78;4987581;28;20046;-42
2022/08/30 01:10:47;;;;;;;;;;;;;;;15.28;64.37;101056.13;4984008;28;20050;-40
2022/08/30 01:13:14;;;;;;;2.72;0.80;;;;;;;15.35;63.58;101047.38;4987714;28;19925;-40
2022/08/30 01:15:43;;;;;;;1.80;0.90;;;;;;;15.37;63.99;101048.22;4985280;28;20150;-38
2022/08/30 01:18:12;;;;;;;3.05;1.00;;;;;;;15.36;63.89;101051.72;4988572;28;20050;-40
2022/08/30 01:20:48;;;;;;;4.22;1.30;;;;;;;15.35;63.96;101049.97;4983679;28;20054;-42
2022/08/30 01:23:18;;;;;;;3.47;0.70;;;;;;;15.35;64.03;101068.25;4981104;28;20049;-40
2022/08/30 01:25:48;;;;;;;3.50;1.10;;;;;;;15.34;64.15;101060.44;4986071;28;20050;-43
2022/08/30 01:28:20;;;;;;;1.25;0.82;;;;;;;15.34;64.62;101053.47;4985166;28;20093;-42
2022/08/30 01:30:47;;;;;;;2.38;1.27;;;;;;;15.34;63.89;101053.47;4985586;28;20057;-41
2022/08/30 01:33:14;;;;;;;2.08;1.13;;;;;;;15.34;63.65;101050.88;4986581;28;20380;-44
2022/08/30 01:36:01;;;;;;;2.88;0.80;;;;;;;15.30;63.86;101059.56;4983531;28;20576;-44
2022/08/30 01:38:34;;;;;;;3.80;1.30;;;;;;;15.34;64.35;101050.88;4985609;28;20065;-47
2022/08/30 01:41:14;;;;;;;2.75;1.02;;;;;;;15.29;64.57;101053.50;4987847;28;20050;-45
2022/08/30 01:43:41;;;;;;;5.05;1.23;;;;;;;15.32;63.98;101042.16;4988865;28;20084;-43
2022/08/30 01:46:09;;;;;;;2.53;1.05;;;;;;;15.31;63.70;101035.22;4990308;28;20046;-43
2022/08/30 01:48:38;;;;;;;3.47;0.93;;;;;;;15.30;64.42;101043.91;4988820;28;20054;-42
2022/08/30 01:51:08;;;;;;;3.50;1.00;;;;;;;15.29;63.96;101047.41;4984419;28;20427;-48
2022/08/30 01:53:34;;;;;;;2.88;0.98;;;;;;;15.27;64.08;101049.16;4987963;28;20050;-41
2022/08/30 01:56:01;;;;;;;2.75;1.08;;;;;;;15.26;64.32;101042.19;4985041;28;20047;-40
2022/08/30 01:58:28;;;;;;;3.33;1.15;;;;;;;15.26;64.37;101048.28;4991621;28;20483;-46
2022/08/30 02:00:54;;;;;;;2.10;1.10;;;;;;;15.25;63.91;101051.78;4986496;28;20082;-39
2022/08/30 02:03:21;;;;;;;5.20;1.15;;;;;;;15.24;64.18;101044.84;4990510;28;20048;-40
2022/08/30 02:05:48;;;;;;;2.92;1.10;;;;;;;15.24;64.06;101049.19;4987298;28;20820;-41
2022/08/30 02:08:15;;;;;;;2.30;1.30;;;;;;;15.23;64.21;101044.84;4990347;28;20473;-40
2022/08/30 02:10:42;;;;;;;2.13;0.95;;;;;;;15.21;64.59;101038.75;4987087;28;20046;-46
2022/08/30 02:13:08;;;;;;;5.88;1.10;;;;;;;15.22;64.45;101041.34;4988831;28;20047;-42
2022/08/30 02:15:35;;;;;;;3.70;1.20;;;;;;;15.23;64.05;101044.84;4986501;28;20050;-48
2022/08/30 02:18:07;;;;;;;6.45;1.33;;;;;;;15.20;64.43;101042.25;4988221;28;20050;-43
2022/08/30 02:20:33;;;;;;;6.90;1.23;;;;;;;15.20;64.50;101045.69;4989894;28;20078;-43
2022/08/30 02:23:00;;;;;;;5.97;1.10;;;;;;;15.14;64.98;101030.94;4987598;28;20541;-45
2022/08/30 02:25:27;;;;;;;2.85;1.25;;;;;;;15.13;64.33;101025.78;4989743;28;20054;-47
2022/08/30 02:27:53;;;;;;;2.95;0.82;;;;;;;15.14;64.39;101028.34;4986188;28;20042;-45
2022/08/30 02:30:20;;;;;;;4.93;1.63;;;;;;;15.14;64.91;101028.34;4989798;28;20101;-45
2022/08/30 02:32:47;;;;;;;1.92;0.90;;;;;;;15.13;64.84;101026.63;4988437;28;20080;-42
2022/08/30 02:35:14;;;;;;;3.13;1.42;;;;;;;15.12;64.42;101019.66;4988080;28;20047;-45
2022/08/30 02:37:40;;;;;;;2.92;1.10;;;;;;;15.12;64.50;101019.66;4989251;28;20399;-43
2022/08/30 02:40:08;;;;;;;2.63;1.05;;;;;;;15.11;64.75;101027.50;4990788;28;20125;-40
2022/08/30 02:42:35;;;;;;;4.47;1.70;;;;;;;15.10;64.55;101031.84;4987865;28;20122;-43
2022/08/30 02:45:03;;;;;;;1.75;0.70;;;;;;;15.10;64.49;101031.00;4990740;28;20050;-40
2022/08/30 02:47:29;;;;;;;2.53;0.90;;;;;;;15.07;64.98;101024.06;4988017;28;20046;-39
2022/08/30 02:49:56;;;;;;;6.45;1.60;;;;;;;15.08;65.16;101019.69;4986618;28;20097;-46
2022/08/30 02:52:23;;;;;;;3.65;0.88;;;;;;;15.06;64.52;101017.09;4989596;28;20054;-43
2022/08/30 02:54:54;;;;;;;4.57;1.23;;;;;;;15.04;64.78;101013.63;4987673;28;20046;-38
2022/08/30 02:57:20;;;;;;;6.18;1.33;;;;;;;15.04;64.59;101016.25;4984698;28;20432;-46
2022/08/30 02:59:47;;;;;;;6.38;1.27;;;;;;;14.99;64.50;101008.44;4982382;28;20047;-48
2022/08/30 03:02:14;;;;;;;3.55;1.10;;;;;;;14.97;64.62;101004.09;4985712;28;20064;-40
2022/08/30 03:04:43;;;;;;;4.13;1.63;;;;;;;14.93;64.81;101007.63;4984771;28;20049;-47
2022/08/30 03:07:11;;;;;;;4.63;1.10;;;;;;;14.90;64.52;101014.56;4985281;28;20054;-43
2022/08/30 03:09:38;;;;;;;6.10;1.48;;;;;;;14.86;64.76;101012.84;4984452;28;20920;-39
2022/08/30 03:12:06;;;;;;;3.15;1.33;;;;;;;14.81;64.73;101009.41;4987666;28;20054;-48
2022/08/30 03:14:35;;;;;;;3.95;2.03;;;;;;;14.76;65.11;101011.16;4986867;28;20446;-46
2022/08/30 03:17:04;;;;;;;2.70;0.90;;;;;;;14.71;65.28;101018.09;4988016;28;20050;-42
2022/08/30 03:19:30;;;;;;;3.65;1.45;;;;;;;14.66;64.89;101020.75;4985903;28;20050;-43
2022/08/30 03:21:57;;;;;;;4.22;1.27;;;;;;;14.63;65.55;101025.97;4986205;28;20694;-42
2022/08/30 03:24:24;;;;;;;2.13;1.10;;;;;;;14.60;65.50;101026.84;4985298;28;20120;-44
2022/08/30 03:26:52;;;;;;;4.00;1.27;;;;;;;14.60;65.11;101019.03;4987588;28;20557;-40
2022/08/30 03:29:18;;;;;;;3.63;1.20;;;;;;;14.60;65.17;101015.56;4986839;28;20043;-45
2022/08/30 03:31:45;;;;;;;3.63;1.52;;;;;;;14.60;65.46;101026.84;4988817;28;20128;-43
2022/08/30 03:34:20;;;;;;;5.13;1.05;;;;;;;14.56;65.45;101030.31;4985097;28;20046;-39
2022/08/30 03:36:48;;;;;;;4.38;1.58;;;;;;;14.53;64.93;101014.72;4982478;28;20447;-45
2022/08/30 03:39:14;;;;;;;2.97;1.30;;;;;;;14.49;65.61;101015.59;4984556;28;20499;-41
2022/08/30 03:41:41;;;;;;;3.40;1.05;;;;;;;14.47;65.94;101019.94;4987423;28;20054;-43
2022/08/30 03:44:08;;;;;;;4.78;1.17;;;;;;;14.42;65.86;101017.34;4986773;28;20112;-39
2022/08/30 03:46:34;;;;;;;3.33;1.05;;;;;;;14.40;65.43;101009.53;4988205;28;20042;-44
2022/08/30 03:49:03;;;;;;;2.63;0.85;;;;;;;14.38;65.47;101015.63;4984211;28;20122;-47
2022/08/30 03:51:31;;;;;;;2.75;1.20;;;;;;;14.34;65.78;101013.91;4985445;28;20068;-49
2022/08/30 03:53:59;;;;;;;2.05;0.98;;;;;;;14.32;66.00;101024.31;4986370;28;20053;-45
2022/08/30 03:56:26;;;;;;;5.72;1.40;;;;;;;14.29;65.63;101024.34;4986479;28;20050;-45
2022/08/30 03:58:52;;;;;;;3.60;1.30;;;;;;;14.27;65.64;101026.06;4990155;28;20486;-44
2022/08/30 04:01:19;;;;;;;2.28;1.15;;;;;;;14.25;66.08;101023.47;4985946;28;20050;-45
2022/08/30 04:03:46;;;;;;;2.55;1.15;;;;;;;14.25;65.76;101030.41;4988774;28;20113;-49
2022/08/30 04:06:13;;;;;;;6.63;0.98;;;;;;;14.24;65.55;101028.69;4989328;28;20055;-44
2022/08/30 04:08:39;;;;;;;3.55;1.08;;;;;;;14.22;65.68;101022.63;4990156;28;20042;-45
2022/08/30 04:11:06;;;;;;;2.53;1.13;;;;;;;14.20;65.98;101020.03;4989888;28;20494;-47
2022/08/30 04:13:33;;;;;;;1.70;1.08;;;;;;;14.19;65.67;101025.22;4989615;28;20053;-40
2022/08/30 04:16:00;;;;;;;3.20;1.02;;;;;;;14.18;65.90;101019.16;4988251;28;20493;-40
2022/08/30 04:18:26;;;;;;;4.50;1.30;;;;;;;14.13;65.43;101016.56;4986186;28;20057;-46
2022/08/30 04:20:53;;;;;;;3.63;0.90;;;;;;;14.11;66.11;101023.50;4989003;28;20061;-42
2022/08/30 04:23:20;;;;;;;3.33;1.13;;;;;;;14.09;65.44;101024.38;4987299;28;20058;-43
2022/08/30 04:25:47;;;;;;;5.68;1.45;;;;;;;14.07;66.03;101026.09;4985004;28;20078;-41
2022/08/30 04:28:13;;;;;;;2.67;0.90;;;;;;;14.06;65.91;101025.25;4984935;28;20042;-45
2022/08/30 04:30:42;;;;;;;3.45;1.30;;;;;;;14.05;65.59;101020.06;4980754;28;20081;-44
2022/08/30 04:33:10;;;;;;;3.17;1.17;;;;;;;14.03;65.51;101019.16;4984195;28;20085;-47
2022/08/30 04:35:40;;;;;;;6.13;1.17;;;;;;;14.01;65.76;101026.97;4963747;28;20158;-45
2022/08/30 04:38:08;;;;;;;2.75;1.08;;;;;;;14.00;65.67;101025.25;4997436;28;20054;-40
2022/08/30 04:40:35;;;;;;;3.05;1.42;;;;;;;13.99;65.96;101023.53;4968498;28;20043;-45
2022/08/30 04:43:03;;;;;;;3.88;1.23;;;;;;;13.99;65.88;101033.94;4986196;28;20086;-43
2022/08/30 04:45:30;;;;;;;2.88;1.13;;;;;;;13.97;65.75;101030.47;4982962;28;20051;-42
2022/08/30 04:47:56;;;;;;;3.70;1.30;;;;;;;13.95;66.32;101032.22;4984543;28;20137;-40
2022/08/30 04:50:23;;;;;;;4.63;1.52;;;;;;;13.95;66.30;101032.22;4982270;28;20042;-43
2022/08/30 04:52:50;;;;;;;3.85;0.98;;;;;;;13.93;66.34;101027.00;4983033;28;20109;-40
2022/08/30 04:55:16;;;;;;;4.90;1.23;;;;;;;13.94;66.07;101035.66;4985104;28;20053;-46
2022/08/30 04:57:46;;;;;;;4.57;1.30;;;;;;;13.92;65.43;101030.50;4982524;28;20998;-42
2022/08/30 05:00:13;;;;;;;2.63;1.25;;;;;;;13.91;65.61;101031.34;4986044;28;20046;-43
2022/08/30 05:02:40;;;;;;;3.08;1.10;;;;;;;13.90;66.13;101033.94;4983695;28;20047;-41
2022/08/30 05:07:55;;;;;;;5.57;1.10;;;;;;;13.87;66.36;101040.91;4970911;28;20046;-45
2022/08/30 05:10:23;;;;;;;4.18;1.10;;;;;;;13.84;65.79;101035.69;4987307;28;20108;-43
2022/08/30 05:12:49;;;;;;;2.92;1.05;;;;;;;13.84;65.60;101042.63;4969544;28;20350;-39
2022/08/30 05:15:16;;;;;;;4.10;1.20;;;;;;;13.82;66.13;101037.41;4985982;28;20050;-41
2022/08/30 05:17:43;;;;;;;3.72;1.27;;;;;;;13.82;66.23;101039.16;4985491;28;20050;-42
2022/08/30 05:20:11;;;;;;;4.20;0.80;;;;;;;13.82;66.22;101042.63;4983916;28;20113;-40
2022/08/30 05:22:41;;;;;;;3.30;0.95;;;;;;;13.80;66.17;101041.78;4980292;28;20058;-40
2022/08/30 05:25:07;;;;;;;;;;;;;;;13.61;66.79;101041.75;4983650;28;20406;-41
2022/08/30 05:27:34;;;;;;;6.60;1.55;;;;;;;13.74;65.73;101052.16;4987688;28;19929;-41
2022/08/30 05:30:05;;;;;;;6.97;1.50;;;;;;;13.75;66.91;101046.97;4985373;28;20043;-44
2022/08/30 05:32:31;;;;;;;4.32;1.13;;;;;;;13.73;66.25;101042.63;4985977;28;20679;-44
2022/08/30 05:34:58;;;;;;;5.03;1.02;;;;;;;13.74;66.94;101044.34;4979211;28;20495;-45
2022/08/30 05:37:24;;;;;;;2.50;0.90;;;;;;;13.74;66.80;101052.16;4980952;28;20093;-42
2022/08/30 05:39:51;;;;;;;5.90;1.00;;;;;;;13.74;66.83;101039.16;4984724;28;20050;-43
2022/08/30 05:42:18;;;;;;;3.00;1.23;;;;;;;13.75;66.28;101046.13;4986153;28;20169;-48
2022/08/30 05:44:46;;;;;;;2.47;0.90;;;;;;;13.75;66.07;101046.13;4984364;28;20042;-47
2022/08/30 05:47:13;;;;;;;4.35;1.38;;;;;;;13.76;66.06;101050.44;4985717;28;20434;-41
2022/08/30 05:49:39;;;;;;;4.28;1.00;;;;;;;13.77;66.40;101044.38;4982166;28;20490;-47
2022/08/30 05:52:06;;;;;;;3.03;1.40;;;;;;;13.79;66.90;101053.06;4983804;28;20423;-41
2022/08/30 05:54:32;;;;;;;5.10;1.13;;;;;;;13.80;66.70;101049.59;4982870;28;20054;-39
2022/08/30 05:56:59;;;;;;;3.35;0.98;;;;;;;13.82;66.83;101046.97;4986793;28;20058;-39
2022/08/30 05:59:26;;;;;;;3.67;1.30;;;;;;;13.84;67.17;101047.84;4983023;28;20046;-42
2022/08/30 06:01:55;;;;;;;4.72;1.27;;;;;;;13.85;66.90;101053.03;4983393;28;20051;-40
2022/08/30 06:04:22;;;;;;;3.20;1.20;;;;;;;13.88;66.59;101053.03;4981714;28;20054;-41
2022/08/30 06:06:49;;;;;;;2.80;0.90;;;;;;;13.92;66.39;101047.84;4981852;28;20050;-46
2022/08/30 06:09:16;;;;;;;3.60;1.23;;;;;;;13.96;66.93;101049.56;4980982;28;20108;-41
2022/08/30 06:11:44;;;;;;;3.03;1.00;;;;;;;13.96;66.85;101045.25;4984828;28;20050;-40
2022/08/30 06:14:11;;;;;;;3.33;1.27;;;;;;;13.97;66.06;101046.09;4983441;28;20058;-47
2022/08/30 06:16:39;;;;;;;4.93;1.08;;;;;;;13.99;66.77;101049.56;4982041;28;20050;-39
2022/08/30 06:19:08;;;;;;;4.70;1.40;;;;;;;14.04;66.88;101047.81;4985879;28;20042;-44
2022/08/30 06:21:35;;;;;;;3.80;1.45;;;;;;;14.08;66.39;101049.56;4981557;28;20434;-39
2022/08/30 06:24:05;;;;;;;3.58;1.45;;;;;;;14.13;66.25;101047.84;4987366;28;20128;-44
2022/08/30 06:26:35;;;;;;;;;;;;;;;14.02;66.25;101049.59;4990094;28;20474;-46
2022/08/30 06:29:02;;;;;;;2.28;1.38;;;;;;;14.13;66.61;101047.84;4990570;28;19922;-40
2022/08/30 06:31:29;;;;;;;3.88;1.25;;;;;;;14.20;66.28;101053.00;4988255;28;20077;-43
2022/08/30 06:33:55;;;;;;;3.25;1.17;;;;;;;14.25;66.25;101051.25;4987504;28;20068;-47
2022/08/30 06:36:24;;;;;;;4.63;1.13;;;;;;;14.31;66.16;101051.25;4987071;28;20047;-44
2022/08/30 06:38:53;;;;;;;4.65;2.58;;;;;;;14.35;66.53;101058.19;4984318;28;20247;-43
2022/08/30 06:41:26;;;;;;;2.78;1.05;;;;;;;14.44;65.53;101057.31;4987673;28;20054;-49
2022/08/30 06:43:54;;;;;;;4.50;2.22;;;;;;;14.54;65.80;101058.16;4985342;28;20438;-40
2022/08/30 06:46:25;;;;;;;5.60;2.13;;;;;;;14.61;65.78;101062.47;4983897;28;20800;-39
2022/08/30 06:48:52;;;;;;;7.90;1.13;;;;;;;14.68;65.83;101059.81;4982820;28;20593;-42
2022/08/30 06:51:23;;;;;;;;;;;;;;;14.60;65.87;101063.38;4986704;28;20054;-40
2022/08/30 06:53:52;;;;;;;3.60;1.00;;;;;;;14.83;65.15;101065.03;4984637;28;21253;-42
2022/08/30 06:56:21;;;;;;;6.60;1.20;;;;;;;15.41;64.63;101068.19;4985278;28;20058;-43
2022/08/30 06:58:48;;;;;;;4.40;1.52;;;;;;;16.13;63.72;101067.66;4985741;28;20109;-40
2022/08/30 07:01:19;;;;;;;3.63;1.75;;;;;;;16.84;62.55;101075.63;4981331;28;20702;-40
2022/08/30 07:03:46;;;;;;;2.13;1.00;;;;;;;17.45;61.10;101066.97;4985567;28;20156;-47
2022/08/30 07:06:13;;;;;;;2.97;1.48;;;;;;;17.95;60.38;101077.53;4985240;28;20046;-48
2022/08/30 07:08:40;;;;;;;3.83;1.13;;;;;;;18.44;59.50;101071.47;4981723;28;20050;-42
2022/08/30 07:11:07;;;;;;;6.80;1.50;;;;;;;18.95;58.77;101080.91;4986839;28;20047;-40
2022/08/30 07:13:35;;;;;;;6.00;1.35;;;;;;;19.40;57.49;101076.47;4979681;28;20050;-46
2022/08/30 07:16:11;;;;;;;2.03;1.13;;;;;;;19.80;56.07;101081.66;4982909;28;20108;-41
2022/08/30 07:18:54;;;;;;;3.40;1.33;;;;;;;20.16;55.29;101079.88;4984625;28;20050;-43
2022/08/30 07:23:59;;;;;;;3.58;0.82;;;;;;;20.95;53.35;101075.97;5042557;28;20429;-45
2022/08/30 07:26:36;;;;;;;2.00;1.10;;;;;;;21.28;52.79;101073.22;5019211;28;20553;-46
2022/08/30 07:29:04;;;;;;;2.30;1.27;;;;;;;21.60;51.52;101086.28;5017139;28;20108;-43
2022/08/30 07:31:33;;;;;;;3.20;1.08;;;;;;;21.91;50.80;101092.31;4985391;28;20050;-46
2022/08/30 07:33:59;;;;;;;3.22;1.02;;;;;;;22.27;50.11;101094.63;4990190;28;20042;-42
2022/08/30 07:36:26;;;;;;;3.22;1.58;;;;;;;22.62;49.71;101093.44;4989148;28;20076;-43
2022/08/30 07:38:53;;;;;;;4.13;1.50;;;;;;;22.94;48.94;101083.44;5001725;28;20061;-44
2022/08/30 07:41:25;;;;;;;1.88;1.00;;;;;;;23.10;48.35;101084.56;4990087;28;20054;-43
2022/08/30 07:43:53;;;;;;;2.72;1.90;;;;;;;23.42;47.72;101080.72;4986351;28;20066;-39
2022/08/30 07:46:21;;;;;;;2.03;1.17;;;;;;;23.54;46.41;101082.03;4984955;28;20507;-40
2022/08/30 07:48:48;;;;;;;1.55;1.15;;;;;;;23.50;46.04;101086.56;4998724;28;20053;-46
2022/08/30 07:51:19;;;;;;;1.20;0.80;;;;;;;23.64;46.16;101079.84;5011626;28;20154;-46
2022/08/30 07:53:46;;;;;;;2.50;0.73;;;;;;;23.78;45.93;101085.44;4997010;28;20070;-42
2022/08/30 07:56:13;;;;;;;3.55;1.10;;;;;;;24.04;45.65;101085.25;4982644;28;20053;-43
2022/08/30 07:58:40;;;;;;;2.55;1.15;;;;;;;24.25;44.92;101083.50;4982345;28;20073;-47
2022/08/30 08:01:09;;;;;;;1.92;0.85;;;;;;;24.55;44.94;101090.97;4986058;28;20058;-42
2022/08/30 08:03:39;;;;;;;2.42;1.00;;;;;;;24.83;44.36;101087.06;4991571;28;20050;-41
2022/08/30 08:06:08;;;;;;;2.60;0.93;;;;;;;25.14;43.78;101082.13;4980467;28;20062;-47
2022/08/30 08:08:36;;;;;;;1.83;0.98;;;;;;;25.47;43.25;101077.91;5012703;28;20054;-41
2022/08/30 08:11:11;;;;;;;2.55;1.10;;;;;;;25.70;42.50;101084.75;4984437;28;20410;-40
2022/08/30 08:13:43;;;;;;;3.60;1.27;;;;;;;25.91;42.11;101090.75;4984690;28;20062;-49
2022/08/30 08:16:23;;;;;;;2.60;0.63;;;;;;;26.13;42.27;101097.63;4995959;28;20049;-46
2022/08/30 08:18:51;;;;;;;3.15;0.65;;;;;;;26.29;41.46;101091.53;5028021;28;20050;-46
2022/08/30 08:21:19;;;;;;;8.68;0.95;;;;;;;26.32;41.20;101086.06;5004101;28;20126;-39
2022/08/30 08:23:46;;;;;;;4.63;1.13;;;;;;;26.58;40.89;101093.59;5019576;28;20046;-43
2022/08/30 08:26:13;;;;;;;2.83;1.00;;;;;;;26.73;40.85;101099.84;5017040;28;22023;-41
2022/08/30 08:28:39;;;;;;;1.92;0.73;;;;;;;27.00;40.91;101094.00;4984217;28;20057;-41
2022/08/30 08:31:16;;;;;;;1.75;0.63;;;;;;;27.27;39.92;101098.69;4986267;28;20065;-46
2022/08/30 08:33:43;;;;;;;4.25;0.85;;;;;;;27.38;39.46;101101.59;4982017;28;20043;-44
2022/08/30 08:36:10;;;;;;;1.58;0.80;;;;;;;27.40;38.49;101104.19;4971941;28;20065;-44
2022/08/30 08:38:37;;;;;;;2.13;0.60;;;;;;;27.34;38.15;101102.72;4974843;28;20468;-40
2022/08/30 08:41:12;;;;;;;1.80;1.40;;;;;;;27.43;39.04;101104.84;4976888;28;20100;-42
2022/08/30 08:43:40;;;;;;;2.10;0.63;;;;;;;27.59;38.36;101104.81;4970457;28;20054;-39
2022/08/30 08:49:06;;;;;;;1.92;1.83;;;;;;;27.78;37.59;101100.25;5044998;27;20390;-48
2022/08/30 08:54:34;;;;;;;1.38;0.77;;;;;;;27.79;37.48;101109.97;5020455;28;20441;-44
2022/08/30 08:57:01;;;;;;;3.75;2.17;;;;;;;27.79;37.68;101102.81;5012303;28;20050;-42
2022/08/30 08:59:27;;;;;;;1.88;1.77;;;;;;;28.03;38.32;101104.13;4990529;28;20058;-44
2022/08/30 09:02:00;;;;;;;2.38;2.17;;;;;;;28.00;37.48;101101.66;4989891;28;20050;-44
2022/08/30 09:04:37;;;;;;;3.38;2.08;;;;;;;27.76;37.17;101099.50;4997386;28;20054;-40
2022/08/30 09:07:21;;;;;;;3.65;0.77;;;;;;;27.74;37.39;101106.69;4986097;28;20401;-41
2022/08/30 09:09:48;;;;;;;2.92;2.72;;;;;;;27.71;37.60;101100.63;5018751;28;20057;-43
2022/08/30 09:12:14;;;;;;;4.85;2.25;;;;;;;27.81;37.45;101108.06;5008978;28;20149;-41
2022/08/30 09:14:47;;;;;;;4.05;1.90;;;;;;;27.90;36.97;101101.34;5010938;28;20058;-43
2022/08/30 09:17:17;;;;;;;3.00;2.50;;;;;;;28.13;37.12;101107.94;5011787;28;20065;-42
2022/08/30 09:19:45;;;;;;;;;;;;;;;28.41;36.93;101100.97;5014961;28;20056;-44
2022/08/30 09:22:33;;;;;;;2.17;1.83;;;;;;;28.57;37.19;101105.34;5007478;28;19929;-41
2022/08/30 09:27:51;;;;;;;1.23;0.70;;;;;;;28.77;36.52;101100.56;5047176;27;20386;-45
2022/08/30 09:30:22;;;;;;;1.85;0.70;;;;;;;28.77;35.60;101100.56;5023597;28;20053;-41
2022/08/30 09:38:11;;;;;;;2.38;0.60;;;;;;;28.44;36.05;101099.91;5028801;27;20406;-43
2022/08/30 09:40:43;;;;;;;1.85;0.57;;;;;;;28.34;35.32;101094.31;5035299;28;20044;-46
2022/08/30 09:43:26;;;;;;;3.60;2.28;;;;;;;28.30;35.68;101082.13;5041463;28;20049;-46
2022/08/30 09:48:43;;;;;;;2.53;1.08;;;;;;;28.42;36.44;101092.00;5094980;27;20396;-48
2022/08/30 10:04:47;;;;;;;2.15;0.70;;;;;;;28.16;36.23;101090.94;5021847;28;20391;-48
2022/08/30 10:15:47;;;;;;;3.85;0.85;;;;;;;28.22;35.03;101094.06;5067728;27;20410;-41
2022/08/30 10:23:38;;;;;;;3.20;1.45;;;;;;;27.60;36.38;101087.06;5013874;27;20739;-45
2022/08/30 10:26:44;;;;;;;3.25;1.40;;;;;;;27.71;36.21;101092.66;4997993;28;20410;-44
2022/08/30 10:31:54;;;;;;;3.75;1.40;;;;;;;27.61;36.28;101095.88;5080483;27;20418;-49
2022/08/30 10:34:30;;;;;;;3.08;1.23;;;;;;;27.75;36.94;101095.09;5056261;28;20093;-47
2022/08/30 10:37:06;;;;;;;2.72;1.20;;;;;;;27.76;36.50;101102.16;5063414;28;20080;-45
2022/08/30 10:39:41;;;;;;;2.97;1.25;;;;;;;27.59;35.65;101093.31;5060496;28;20048;-46
2022/08/30 10:42:17;;;;;;;2.60;0.85;;;;;;;27.60;37.03;101095.06;5060341;28;20091;-43
2022/08/30 10:44:49;;;;;;;2.47;0.90;;;;;;;27.66;36.89;101084.06;5063353;28;20048;-46
2022/08/30 11:51:02;;;;;;;1.98;1.05;;;;;;;25.41;39.28;101079.94;5047430;28;20396;-45
2022/08/30 11:53:44;;;;;;;3.35;0.70;;;;;;;25.19;39.90;101073.97;5025673;28;20049;-42
2022/08/30 11:56:21;;;;;;;4.10;0.85;;;;;;;25.13;40.33;101081.28;5014983;28;20598;-43
2022/08/30 12:06:58;;;;;;;2.90;1.30;;;;;;;25.26;40.09;101072.75;5030024;28;20423;-41
2022/08/30 12:12:31;;;;;;;2.03;0.52;;;;;;;24.70;40.79;101078.84;5049494;28;20400;-44
2022/08/30 12:14:59;;;;;;;3.72;0.85;;;;;;;24.61;41.32;101082.75;5041310;28;20045;-46
2022/08/30 12:28:45;;;;;;;3.15;0.80;;;;;;;24.37;42.56;101085.59;5027323;28;20904;-42
2022/08/30 12:31:17;;;;;;;4.57;0.80;;;;;;;24.28;42.51;101083.31;5000425;28;20057;-42
2022/08/30 12:33:57;;;;;;;3.47;1.25;;;;;;;24.13;42.68;101085.75;5014286;28;20046;-45
2022/08/30 12:36:49;;;;;;;3.17;0.98;;;;;;;24.11;42.64;101098.16;4999026;28;20069;-44
2022/08/30 12:39:22;;;;;;;2.72;0.77;;;;;;;24.10;43.10;101088.47;5008140;28;20054;-42
2022/08/30 12:41:50;;;;;;;3.05;0.93;;;;;;;24.09;42.71;101088.56;5011798;28;20050;-39
2022/08/30 12:44:25;;;;;;;3.15;0.70;;;;;;;24.09;43.08;101093.84;5010942;28;20100;-44
2022/08/30 12:47:00;;;;;;;4.65;1.00;;;;;;;24.09;43.68;101097.34;5014744;28;20073;-42
2022/08/30 12:49:33;;;;;;;2.15;0.85;;;;;;;24.09;43.97;101092.06;5009276;28;20052;-44
2022/08/30 12:54:55;;;;;;;2.05;0.73;;;;;;;23.91;43.84;101092.84;5047728;27;20391;-42
2022/08/30 12:57:42;;;;;;;3.55;0.80;;;;;;;23.73;44.33;101090.03;4995610;28;20178;-47
2022/08/30 13:03:02;;;;;;;4.95;1.20;;;;;;;23.71;44.10;101089.25;5078077;27;20394;-43
2022/08/30 13:05:44;;;;;;;3.15;1.00;;;;;;;23.57;44.86;101081.91;5037662;28;20056;-47
2022/08/30 13:13:44;;;;;;;2.40;1.75;;;;;;;23.38;45.42;101077.34;5040901;27;20395;-46
2022/08/30 13:21:33;;;;;;;4.55;0.82;;;;;;;23.55;45.58;101079.31;5089821;27;20881;-42
2022/08/30 13:24:03;;;;;;;2.65;0.52;;;;;;;23.56;45.65;101078.38;5031039;28;20045;-46
2022/08/30 13:26:34;;;;;;;4.72;1.35;;;;;;;23.57;46.04;101077.47;5062648;28;20052;-44
2022/08/30 13:29:04;;;;;;;2.13;0.70;;;;;;;23.62;45.43;101080.78;5065782;28;20048;-44
2022/08/30 13:31:36;;;;;;;3.25;0.80;;;;;;;23.61;46.01;101073.75;5087391;28;20048;-45
2022/08/30 13:34:03;;;;;;;4.88;0.90;;;;;;;23.54;45.50;101077.56;5065128;28;20059;-46
2022/08/30 13:36:34;;;;;;;2.20;1.33;;;;;;;23.45;47.01;101072.69;5062445;28;20061;-44
2022/08/30 13:39:03;;;;;;;3.83;0.80;;;;;;;23.41;46.34;101079.88;5081696;28;20048;-47
2022/08/30 13:41:30;;;;;;;1.70;0.80;;;;;;;23.41;46.00;101071.97;5068343;28;20743;-44
2022/08/30 13:44:00;;;;;;;2.78;0.68;;;;;;;23.41;46.70;101065.78;5072479;28;20051;-44
2022/08/30 13:46:40;;;;;;;1.88;0.77;;;;;;;23.35;45.96;101066.91;5073022;28;20060;-43
2022/08/30 13:49:16;;;;;;;2.67;0.98;;;;;;;23.31;47.01;101066.16;5069857;28;20047;-41
2022/08/30 13:52:05;;;;;;;3.42;0.90;;;;;;;23.22;46.53;101061.22;5068531;28;20072;-48
2022/08/30 13:54:46;;;;;;;1.38;0.60;;;;;;;23.22;46.27;101054.16;5070519;28;20065;-42
2022/08/30 13:57:15;;;;;;;;;;;;;;;23.10;47.51;101054.66;5064266;28;20174;-45
2022/08/30 14:00:05;;;;;;;3.03;1.02;;;;;;;23.32;46.85;101046.72;5071293;28;20011;-46
2022/08/30 14:02:32;;;;;;;2.92;0.80;;;;;;;23.49;46.58;101048.72;5070034;28;20052;-40
2022/08/30 14:05:10;;;;;;;1.90;0.82;;;;;;;23.59;46.25;101057.13;5067157;28;20492;-43
2022/08/30 14:07:57;;;;;;;2.50;1.10;;;;;;;23.52;46.68;101045.06;5071641;28;20072;-42
2022/08/30 14:10:27;;;;;;;2.60;0.98;;;;;;;23.42;46.38;101051.66;5077370;28;20049;-46
2022/08/30 14:12:58;;;;;;;3.22;1.00;;;;;;;23.27;46.13;101040.75;5072699;28;20052;-46